Time;durP1;ratioP1;P1;durP2;ratioP2;P2;SDS_P1;SDS_P2;PMS_P1;PMS_P2;Temp;Humidity;BMP_temperature;BMP_pressure;BME280_temperature;BME280_humidity;BME280_pressure;Samples;Min_cycle;Max_cycle;Signal;HPM_P1;HPM_P2
2023/04/17 00:00:08;;;;;;;17.55;15.25;;;;;;;12.78;72.79;101034.38;5052012;28;20049;-58
2023/04/17 00:02:38;;;;;;;19.88;15.75;;;;;;;12.76;72.47;101043.06;5038458;28;20088;-58
2023/04/17 00:05:07;;;;;;;19.90;17.52;;;;;;;12.80;72.57;101037.69;5052654;28;20520;-58
2023/04/17 00:07:37;;;;;;;20.58;16.95;;;;;;;12.77;72.52;101038.31;5035167;28;20059;-58
2023/04/17 00:10:07;;;;;;;20.48;17.48;;;;;;;12.74;72.57;101045.34;5050262;28;20075;-58
2023/04/17 00:12:34;;;;;;;21.67;19.38;;;;;;;12.80;72.91;101034.88;5049843;28;20049;-58
2023/04/17 00:15:02;;;;;;;29.73;25.38;;;;;;;12.78;72.89;101038.00;5052619;28;20065;-58
2023/04/17 00:17:29;;;;;;;26.25;22.88;;;;;;;12.84;72.52;101041.50;5032981;28;20053;-58
2023/04/17 00:19:58;;;;;;;30.08;24.45;;;;;;;12.85;73.04;101029.19;5050881;28;20057;-58
2023/04/17 00:22:25;;;;;;;33.70;26.75;;;;;;;12.82;73.35;101041.00;5051637;28;20064;-58
2023/04/17 00:24:52;;;;;;;27.73;24.67;;;;;;;12.84;72.70;101041.50;5049373;28;20401;-58
2023/04/17 00:27:19;;;;;;;31.88;27.15;;;;;;;12.84;73.48;101035.91;5050146;28;20498;-58
2023/04/17 00:29:47;;;;;;;26.85;22.95;;;;;;;12.86;72.44;101033.63;5051254;28;20053;-58
2023/04/17 00:32:14;;;;;;;26.30;23.48;;;;;;;12.89;73.25;101040.53;5046012;28;20052;-58
2023/04/17 00:34:41;;;;;;;27.52;24.52;;;;;;;12.86;72.31;101042.00;5052567;28;20057;-58
2023/04/17 00:37:10;;;;;;;29.65;24.80;;;;;;;12.88;72.62;101028.53;5033821;28;20068;-58
2023/04/17 00:39:37;;;;;;;29.40;24.90;;;;;;;12.88;72.73;101031.34;5049878;28;20057;-58
2023/04/17 00:42:05;;;;;;;29.45;25.75;;;;;;;12.86;72.32;101030.00;5034953;28;20049;-58
2023/04/17 00:44:32;;;;;;;29.42;25.25;;;;;;;12.85;71.74;101031.13;5032319;28;20053;-58
2023/04/17 00:46:59;;;;;;;33.95;26.40;;;;;;;12.82;72.42;101027.00;5043951;28;20053;-58
2023/04/17 00:49:28;;;;;;;25.00;22.35;;;;;;;12.83;71.96;101031.47;5049880;28;20394;-58
2023/04/17 00:51:56;;;;;;;25.70;22.98;;;;;;;12.85;72.07;101031.97;5036478;28;20061;-58
2023/04/17 00:54:25;;;;;;;27.52;23.27;;;;;;;12.80;71.87;101032.91;5032256;28;20053;-58
2023/04/17 00:56:55;;;;;;;30.00;26.77;;;;;;;12.65;71.81;101029.66;5034015;28;20061;-58
2023/04/17 00:59:23;;;;;;;28.05;25.05;;;;;;;12.72;72.37;101030.84;5032233;28;20238;-58
2023/04/17 01:01:50;;;;;;;29.40;24.88;;;;;;;12.76;71.38;101025.47;5049700;28;20057;-58
2023/04/17 01:04:18;;;;;;;28.38;25.30;;;;;;;12.74;72.06;101025.78;5045867;28;20057;-58
2023/04/17 01:06:45;;;;;;;28.27;25.15;;;;;;;12.80;72.21;101035.69;5036737;28;20060;-58
2023/04/17 01:09:13;;;;;;;27.38;24.55;;;;;;;12.76;71.54;101029.09;5035954;28;20053;-59
2023/04/17 01:11:42;;;;;;;29.73;25.38;;;;;;;12.78;72.30;101031.56;5049894;28;20052;-59
2023/04/17 01:14:10;;;;;;;28.35;24.25;;;;;;;12.81;71.41;101028.16;5051677;28;20076;-59
2023/04/17 01:16:39;;;;;;;29.27;25.08;;;;;;;12.77;71.65;101024.34;5035908;28;20076;-58
2023/04/17 01:19:07;;;;;;;31.42;25.17;;;;;;;12.78;71.79;101026.81;5051081;28;20049;-59
2023/04/17 01:21:34;;;;;;;33.38;27.42;;;;;;;12.77;71.98;101027.97;5055438;28;20053;-59
2023/04/17 01:24:04;;;;;;;33.22;25.52;;;;;;;12.78;71.29;101039.97;5054850;28;20056;-59
2023/04/17 01:26:32;;;;;;;28.85;25.13;;;;;;;12.75;72.12;101037.81;5055610;28;20056;-58
2023/04/17 01:29:00;;;;;;;30.58;25.25;;;;;;;12.75;71.35;101038.63;5055580;28;20053;-58
2023/04/17 01:31:28;;;;;;;26.70;23.75;;;;;;;12.82;71.81;101038.19;5055654;28;20052;-58
2023/04/17 01:33:55;;;;;;;31.27;26.05;;;;;;;12.82;71.28;101037.38;5037846;28;20053;-58
2023/04/17 01:36:22;;;;;;;28.20;24.73;;;;;;;12.84;71.57;101035.91;5035709;28;20083;-59
2023/04/17 01:38:49;;;;;;;28.67;23.65;;;;;;;12.85;71.33;101040.38;5036113;28;20057;-59
2023/04/17 01:41:18;;;;;;;28.23;24.52;;;;;;;12.84;71.53;101035.91;5044500;28;20405;-58
2023/04/17 01:43:46;;;;;;;29.58;25.00;;;;;;;12.86;70.93;101041.19;5054162;28;20409;-59
2023/04/17 01:46:14;;;;;;;27.83;23.95;;;;;;;12.85;71.11;101037.56;5054951;28;20417;-59
2023/04/17 01:48:41;;;;;;;31.23;25.23;;;;;;;12.83;70.81;101039.88;5041437;28;20490;-59
2023/04/17 01:51:08;;;;;;;31.38;27.65;;;;;;;12.82;71.47;101043.78;5035357;28;20406;-58
2023/04/17 01:53:36;;;;;;;30.50;25.58;;;;;;;12.82;71.51;101042.97;5035449;28;20495;-58
2023/04/17 01:56:03;;;;;;;27.55;24.60;;;;;;;12.77;70.59;101036.34;5035393;28;20049;-58
2023/04/17 01:58:32;;;;;;;27.85;24.52;;;;;;;12.75;70.80;101043.41;5055447;28;20060;-59
2023/04/17 02:01:00;;;;;;;29.93;24.37;;;;;;;12.72;70.64;101046.81;5055042;28;20060;-59
2023/04/17 02:03:27;;;;;;;30.20;25.17;;;;;;;12.69;71.22;101044.66;5049544;28;20492;-58
2023/04/17 02:05:54;;;;;;;28.38;25.05;;;;;;;12.70;70.68;101046.31;5054724;28;20060;-59
2023/04/17 02:08:21;;;;;;;29.00;24.45;;;;;;;12.69;71.46;101039.88;5055090;28;20053;-59
2023/04/17 02:10:49;;;;;;;30.98;26.38;;;;;;;12.64;70.84;101042.81;5054215;28;20506;-58
2023/04/17 02:13:16;;;;;;;28.63;24.73;;;;;;;12.63;70.64;101045.91;5053888;28;20049;-58
2023/04/17 02:15:45;;;;;;;27.50;23.88;;;;;;;12.57;71.23;101043.22;5054793;28;20044;-59
2023/04/17 02:18:12;;;;;;;33.83;27.98;;;;;;;12.58;70.64;101044.06;5051206;28;20049;-59
2023/04/17 02:20:40;;;;;;;26.13;23.33;;;;;;;12.55;71.38;101042.72;5054693;28;20134;-58
2023/04/17 02:23:07;;;;;;;29.00;25.33;;;;;;;12.54;70.85;101049.44;5054799;28;20045;-59
2023/04/17 02:25:35;;;;;;;31.00;25.90;;;;;;;12.55;71.25;101050.28;5054531;28;20064;-58
2023/04/17 02:28:02;;;;;;;28.80;24.98;;;;;;;12.52;71.25;101048.13;5054495;28;20048;-58
2023/04/17 02:30:30;;;;;;;31.70;26.08;;;;;;;12.53;71.70;101052.56;5054791;28;20053;-59
2023/04/17 02:32:58;;;;;;;32.55;26.15;;;;;;;12.50;71.35;101042.84;5049410;28;20390;-59
2023/04/17 02:35:28;;;;;;;27.33;23.98;;;;;;;12.47;71.64;101046.25;5041605;28;20053;-59
2023/04/17 02:37:55;;;;;;;28.10;24.10;;;;;;;12.46;71.37;101041.81;5054390;28;20080;-58
2023/04/17 02:40:23;;;;;;;25.92;22.95;;;;;;;12.47;71.49;101051.00;5054419;28;20056;-58
2023/04/17 02:42:50;;;;;;;29.88;24.42;;;;;;;12.50;71.69;101048.44;5054530;28;20056;-59
2023/04/17 02:45:17;;;;;;;30.27;25.40;;;;;;;12.47;71.28;101045.41;5054523;28;20053;-59
2023/04/17 02:47:45;;;;;;;27.65;24.48;;;;;;;12.43;70.62;101048.03;5051286;28;20053;-59
2023/04/17 02:50:13;;;;;;;29.02;25.33;;;;;;;12.44;71.35;101044.09;5034094;28;20054;-59
2023/04/17 02:52:41;;;;;;;28.13;23.05;;;;;;;12.45;71.01;101056.09;5034070;28;20054;-58
2023/04/17 02:55:08;;;;;;;30.52;25.33;;;;;;;12.41;71.20;101044.72;5034332;28;20061;-58
2023/04/17 02:57:40;;;;;;;29.92;26.63;;;;;;;12.34;70.93;101053.50;5034390;28;20397;-58
2023/04/17 03:00:12;;;;;;;28.70;24.00;;;;;;;12.36;71.60;101054.03;5033807;28;20490;-58
2023/04/17 03:02:39;;;;;;;30.52;25.58;;;;;;;12.40;71.15;101054.22;5036606;28;20052;-58
2023/04/17 03:05:08;;;;;;;31.15;26.83;;;;;;;12.36;71.47;101048.44;5048807;28;20060;-58
2023/04/17 03:07:36;;;;;;;28.58;24.65;;;;;;;12.36;71.34;101054.03;5053930;28;20057;-59
2023/04/17 03:10:05;;;;;;;31.30;23.95;;;;;;;12.36;71.86;101054.03;5053423;28;20049;-58
2023/04/17 03:12:32;;;;;;;27.45;24.23;;;;;;;12.33;70.88;101053.84;5053385;28;20052;-58
2023/04/17 03:14:59;;;;;;;29.48;23.70;;;;;;;12.26;71.45;101065.41;5053110;28;20068;-59
2023/04/17 03:17:27;;;;;;;27.42;24.02;;;;;;;12.24;70.55;101061.28;5052024;28;20053;-58
2023/04/17 03:19:54;;;;;;;27.10;23.15;;;;;;;12.26;70.78;101059.00;5051637;28;20501;-58
2023/04/17 03:22:21;;;;;;;26.58;23.00;;;;;;;12.25;70.41;101060.97;5053392;28;20056;-58
2023/04/17 03:24:50;;;;;;;27.60;20.98;;;;;;;12.29;70.63;101069.56;5053401;28;20056;-59
2023/04/17 03:27:23;;;;;;;26.58;22.88;;;;;;;12.29;70.97;101073.19;5053096;28;20048;-58
2023/04/17 03:29:55;;;;;;;26.98;22.13;;;;;;;12.28;70.55;101065.09;5053527;28;20053;-58
2023/04/17 03:32:22;;;;;;;24.25;21.17;;;;;;;12.28;69.97;101062.31;5053210;28;20056;-59
2023/04/17 03:34:52;;;;;;;25.98;21.35;;;;;;;12.26;70.46;101064.59;5047941;28;20068;-58
2023/04/17 03:37:19;;;;;;;25.95;21.73;;;;;;;12.28;70.21;101067.91;5053028;28;20402;-58
2023/04/17 03:39:46;;;;;;;25.98;22.13;;;;;;;12.25;70.06;101057.34;5053062;28;20401;-58
2023/04/17 03:42:15;;;;;;;28.08;22.88;;;;;;;12.22;70.70;101064.41;5053222;28;20060;-58
2023/04/17 03:44:42;;;;;;;26.35;23.23;;;;;;;12.22;69.68;101066.34;5051816;28;20486;-58
2023/04/17 03:47:10;;;;;;;26.35;23.20;;;;;;;12.21;69.65;101059.94;5052712;28;20044;-58
2023/04/17 03:49:37;;;;;;;28.85;24.05;;;;;;;12.20;69.86;101066.69;5037810;28;20053;-58
2023/04/17 03:52:05;;;;;;;26.85;22.48;;;;;;;12.15;70.05;101059.22;5032970;28;20053;-58
2023/04/17 03:54:34;;;;;;;26.35;22.20;;;;;;;12.12;70.08;101071.00;5033088;28;20412;-58
2023/04/17 03:57:02;;;;;;;25.35;22.15;;;;;;;12.09;70.73;101074.41;5032856;28;20064;-59
2023/04/17 03:59:31;;;;;;;25.63;22.42;;;;;;;12.06;71.15;101074.22;5032888;28;20370;-58
2023/04/17 04:01:59;;;;;;;27.45;23.27;;;;;;;12.09;70.99;101071.63;5032825;28;20049;-58
2023/04/17 04:04:26;;;;;;;27.70;23.77;;;;;;;12.12;70.02;101073.81;5040855;28;20053;-58
2023/04/17 04:06:56;;;;;;;26.60;21.88;;;;;;;12.13;70.62;101078.25;5052570;28;20068;-59
2023/04/17 04:09:23;;;;;;;;;;;;;;;12.08;70.17;101074.75;5042550;28;20054;-61
2023/04/17 04:11:50;;;;;;;31.38;23.67;;;;;;;12.04;70.59;101074.53;5039042;28;20293;-60
2023/04/17 04:14:17;;;;;;;27.83;23.15;;;;;;;12.07;71.29;101073.88;5052313;28;20048;-61
2023/04/17 04:16:46;;;;;;;27.10;22.95;;;;;;;12.09;70.82;101082.78;5042115;28;20499;-60
2023/04/17 04:19:13;;;;;;;27.80;23.95;;;;;;;12.08;70.17;101077.53;5037804;28;20068;-61
2023/04/17 04:21:42;;;;;;;27.10;22.38;;;;;;;12.03;70.54;101084.03;5051198;28;20057;-60
2023/04/17 04:24:12;;;;;;;29.60;23.43;;;;;;;12.05;70.75;101084.53;5048118;28;20052;-61
2023/04/17 04:26:41;;;;;;;28.52;23.30;;;;;;;12.01;70.36;101080.75;5039271;28;20053;-59
2023/04/17 04:29:12;;;;;;;28.42;24.05;;;;;;;11.99;70.70;101085.81;5034553;28;20148;-61
2023/04/17 04:31:39;;;;;;;27.33;22.92;;;;;;;11.96;70.20;101087.22;5032262;28;20060;-60
2023/04/17 04:34:09;;;;;;;29.67;24.65;;;;;;;11.97;70.00;101085.28;5034021;28;20068;-61
2023/04/17 04:36:40;;;;;;;30.95;24.77;;;;;;;12.01;70.76;101086.31;5051477;28;20056;-60
2023/04/17 04:39:08;;;;;;;28.70;23.50;;;;;;;11.99;70.44;101091.38;5051145;28;20080;-63
2023/04/17 04:41:37;;;;;;;31.40;24.00;;;;;;;11.95;70.43;101091.16;5051993;28;20494;-60
2023/04/17 04:44:04;;;;;;;28.42;24.33;;;;;;;11.95;70.37;101088.38;5050252;28;20056;-62
2023/04/17 04:46:31;;;;;;;30.83;24.45;;;;;;;11.95;70.96;101093.97;5036083;28;20064;-61
2023/04/17 04:48:58;;;;;;;28.20;23.23;;;;;;;12.03;70.32;101100.78;5046105;28;20053;-60
2023/04/17 04:51:27;;;;;;;29.27;23.88;;;;;;;12.02;70.19;101103.91;5038145;28;20429;-61
2023/04/17 04:53:54;;;;;;;28.38;24.75;;;;;;;12.00;70.38;101095.81;5052091;28;20060;-61
2023/04/17 04:56:22;;;;;;;26.63;22.48;;;;;;;12.03;70.29;101099.97;5034280;28;20052;-61
2023/04/17 04:58:49;;;;;;;32.38;25.67;;;;;;;12.01;70.31;101103.06;5037847;28;20410;-61
2023/04/17 05:01:17;;;;;;;31.10;25.30;;;;;;;11.98;70.25;101101.72;5036135;28;20057;-61
2023/04/17 05:03:44;;;;;;;31.95;25.52;;;;;;;12.01;70.31;101117.03;5033784;28;20350;-61
2023/04/17 05:06:12;;;;;;;32.67;26.00;;;;;;;12.01;70.65;101113.41;5034761;28;20053;-61
2023/04/17 05:08:41;;;;;;;34.42;26.85;;;;;;;12.03;70.41;101111.13;5030267;28;20050;-62
2023/04/17 05:11:08;;;;;;;35.13;28.57;;;;;;;12.09;70.79;101109.88;5031320;28;20049;-62
2023/04/17 05:13:36;;;;;;;29.63;24.13;;;;;;;12.12;70.32;101115.69;5032243;28;20053;-62
2023/04/17 05:16:03;;;;;;;26.90;23.20;;;;;;;12.13;69.80;101117.34;5037205;28;20053;-62
2023/04/17 05:18:30;;;;;;;27.23;23.42;;;;;;;12.15;70.16;101126.22;5046282;28;20487;-62
2023/04/17 05:20:58;;;;;;;28.17;23.95;;;;;;;12.14;69.97;101119.00;5034192;28;20617;-61
2023/04/17 05:23:27;;;;;;;27.45;24.10;;;;;;;12.16;69.79;101122.31;5036590;28;20049;-61
2023/04/17 05:25:55;;;;;;;30.45;25.38;;;;;;;12.22;69.58;101120.25;5048241;28;20049;-61
2023/04/17 05:28:23;;;;;;;27.35;23.70;;;;;;;12.21;69.25;101135.34;5051569;28;20049;-61
2023/04/17 05:30:50;;;;;;;29.25;23.73;;;;;;;12.21;69.35;101134.53;5051652;28;20478;-61
2023/04/17 05:33:17;;;;;;;29.15;24.25;;;;;;;12.23;69.46;101137.84;5049453;28;20049;-62
2023/04/17 05:35:45;;;;;;;30.58;24.58;;;;;;;12.22;69.58;101123.06;5049189;28;20053;-61
2023/04/17 05:38:12;;;;;;;30.10;24.20;;;;;;;12.28;69.02;101127.38;5035506;28;20049;-61
2023/04/17 05:40:39;;;;;;;31.55;25.48;;;;;;;12.23;69.10;101137.84;5039685;28;20402;-62
2023/04/17 05:43:09;;;;;;;29.33;24.75;;;;;;;12.19;69.17;101132.84;5045384;28;20065;-62
2023/04/17 05:45:37;;;;;;;31.95;24.33;;;;;;;12.25;69.57;101135.56;5039871;28;20049;-62
2023/04/17 05:48:04;;;;;;;28.77;24.08;;;;;;;12.26;68.83;101140.00;5044419;28;20060;-62
2023/04/17 05:50:32;;;;;;;32.88;27.45;;;;;;;12.23;69.29;101135.88;5041158;28;20056;-62
2023/04/17 05:52:59;;;;;;;29.65;25.83;;;;;;;12.29;69.57;101136.59;5044289;28;20056;-62
2023/04/17 05:55:26;;;;;;;27.08;24.15;;;;;;;12.33;68.70;101135.66;5041559;28;20053;-62
2023/04/17 05:57:53;;;;;;;29.65;25.27;;;;;;;12.34;69.12;101139.28;5051845;28;20053;-63
2023/04/17 06:00:23;;;;;;;29.83;25.52;;;;;;;12.37;68.50;101142.28;5050814;28;20045;-62
2023/04/17 06:02:51;;;;;;;28.88;24.77;;;;;;;12.38;69.17;101134.72;5047137;28;20080;-62
2023/04/17 06:05:18;;;;;;;28.52;25.20;;;;;;;12.41;68.47;101145.31;5035453;28;20053;-63
2023/04/17 06:07:45;;;;;;;29.73;25.27;;;;;;;12.46;68.65;101135.97;5035097;28;20053;-63
2023/04/17 06:10:13;;;;;;;27.67;24.10;;;;;;;12.57;68.29;101137.41;5034834;28;20080;-62
2023/04/17 06:12:40;;;;;;;34.22;27.33;;;;;;;12.57;68.83;101149.41;5034662;28;20061;-62
2023/04/17 06:15:08;;;;;;;30.80;25.38;;;;;;;12.59;67.84;101146.31;5034473;28;20057;-62
2023/04/17 06:17:38;;;;;;;31.83;25.27;;;;;;;12.64;67.84;101148.16;5042664;28;20048;-62
2023/04/17 06:20:09;;;;;;;31.48;25.00;;;;;;;12.65;67.60;101155.44;5048763;28;20521;-62
2023/04/17 06:22:36;;;;;;;31.08;26.83;;;;;;;12.66;67.25;101151.47;5034624;28;20473;-63
2023/04/17 06:25:04;;;;;;;29.75;25.65;;;;;;;12.70;66.97;101152.50;5035018;28;20056;-62
2023/04/17 06:27:31;;;;;;;30.30;25.25;;;;;;;12.65;67.88;101150.66;5034898;28;20060;-62
2023/04/17 06:29:59;;;;;;;33.17;25.17;;;;;;;12.69;67.61;101159.25;5034729;28;20141;-63
2023/04/17 06:32:26;;;;;;;32.40;26.17;;;;;;;12.68;67.13;101154.78;5039903;28;20064;-62
2023/04/17 06:34:55;;;;;;;31.20;25.35;;;;;;;12.73;67.50;101154.69;5054498;28;20049;-62
2023/04/17 06:37:22;;;;;;;27.23;23.17;;;;;;;12.79;66.38;101157.06;5053194;28;20049;-63
2023/04/17 06:39:49;;;;;;;29.20;24.27;;;;;;;12.82;67.02;101160.38;5054579;28;20057;-63
2023/04/17 06:42:17;;;;;;;28.70;24.42;;;;;;;12.83;66.77;101170.41;5044306;28;20053;-62
2023/04/17 06:44:44;;;;;;;28.50;24.15;;;;;;;12.75;66.16;101170.00;5050936;28;20056;-62
2023/04/17 06:47:11;;;;;;;29.10;23.17;;;;;;;12.76;66.79;101165.25;5041130;28;20057;-62
2023/04/17 06:49:38;;;;;;;32.40;25.45;;;;;;;12.71;66.78;101168.97;5043687;28;20072;-62
2023/04/17 06:52:07;;;;;;;28.55;24.58;;;;;;;12.73;66.24;101171.47;5035509;28;20060;-62
2023/04/17 06:54:35;;;;;;;29.63;24.52;;;;;;;12.72;66.84;101178.19;5053895;28;20509;-62
2023/04/17 06:57:05;;;;;;;30.33;24.25;;;;;;;12.74;66.55;101175.91;5053988;28;20139;-62
2023/04/17 06:59:33;;;;;;;25.40;22.23;;;;;;;12.71;66.13;101182.97;5053128;28;20061;-62
2023/04/17 07:02:00;;;;;;;28.13;23.70;;;;;;;12.69;66.27;101184.41;5050291;28;20057;-62
2023/04/17 07:04:27;;;;;;;31.45;24.50;;;;;;;12.72;65.32;101183.78;5038205;28;20053;-62
2023/04/17 07:06:54;;;;;;;28.80;23.17;;;;;;;12.70;66.03;101189.66;5033752;28;20446;-62
2023/04/17 07:09:24;;;;;;;31.38;24.63;;;;;;;12.76;66.21;101191.22;5033115;28;20049;-61
2023/04/17 07:11:51;;;;;;;28.58;22.63;;;;;;;12.82;65.56;101199.53;5033922;28;20057;-62
2023/04/17 07:14:18;;;;;;;29.83;23.85;;;;;;;12.75;66.29;101202.75;5033354;28;20054;-62
2023/04/17 07:16:46;;;;;;;29.27;24.17;;;;;;;12.76;66.51;101202.41;5034600;28;20056;-61
2023/04/17 07:19:13;;;;;;;27.20;22.85;;;;;;;12.80;65.25;101199.81;5037179;28;20482;-61
2023/04/17 07:21:40;;;;;;;27.02;23.40;;;;;;;12.86;66.22;101212.56;5053139;28;20056;-61
2023/04/17 07:24:08;;;;;;;27.38;23.30;;;;;;;12.95;65.79;101207.06;5039318;28;20057;-61
2023/04/17 07:26:36;;;;;;;28.77;23.13;;;;;;;13.03;65.73;101216.69;5049159;28;20060;-61
2023/04/17 07:29:04;;;;;;;27.53;23.77;;;;;;;12.88;65.53;101209.47;5039633;28;20060;-62
2023/04/17 07:31:31;;;;;;;26.33;22.17;;;;;;;13.02;65.29;101209.44;5036007;28;20053;-61
2023/04/17 07:33:59;;;;;;;25.98;23.02;;;;;;;13.10;65.29;101217.94;5052877;28;20382;-61
2023/04/17 07:36:27;;;;;;;26.02;22.27;;;;;;;13.26;64.00;101215.59;5053168;28;20056;-61
2023/04/17 07:38:54;;;;;;;23.98;20.83;;;;;;;13.48;63.87;101225.22;5050047;28;20395;-61
2023/04/17 07:41:22;;;;;;;26.10;22.05;;;;;;;13.70;64.20;101228.03;5047198;28;20057;-62
2023/04/17 07:43:50;;;;;;;33.15;21.58;;;;;;;14.00;63.91;101229.25;5036839;28;20045;-62
2023/04/17 07:46:17;;;;;;;34.72;23.58;;;;;;;14.10;61.82;101228.16;5044253;28;20057;-61
2023/04/17 07:48:46;;;;;;;28.38;22.92;;;;;;;14.27;62.61;101232.22;5037823;28;20049;-62
2023/04/17 07:51:13;;;;;;;26.20;20.98;;;;;;;14.45;61.82;101228.38;5040788;28;20045;-62
2023/04/17 07:53:40;;;;;;;23.95;20.92;;;;;;;14.71;59.31;101224.88;5037105;28;20497;-62
2023/04/17 07:56:07;;;;;;;23.95;21.40;;;;;;;15.03;59.87;101226.47;5040441;28;20523;-62
2023/04/17 07:58:35;;;;;;;23.55;20.70;;;;;;;15.45;58.14;101215.63;5036050;28;20068;-62
2023/04/17 08:01:05;;;;;;;24.73;20.80;;;;;;;15.90;56.52;101220.94;5041140;28;20059;-62
2023/04/17 08:03:32;;;;;;;;;;;;;;;15.90;55.32;101217.31;5044577;28;20055;-62
2023/04/17 08:05:59;;;;;;;22.55;20.20;;;;;;;16.33;55.98;101213.56;5033900;28;19936;-62
2023/04/17 08:08:26;;;;;;;20.75;18.48;;;;;;;16.63;54.27;101220.06;5043010;28;20060;-62
2023/04/17 08:10:54;;;;;;;22.42;20.02;;;;;;;17.01;53.52;101217.28;5044140;28;20056;-62
2023/04/17 08:13:21;;;;;;;24.25;20.45;;;;;;;17.26;52.31;101228.72;5046883;28;20508;-62
2023/04/17 08:15:50;;;;;;;21.90;19.65;;;;;;;18.96;50.39;101228.88;5041941;28;20061;-62
2023/04/17 08:18:19;;;;;;;20.88;18.65;;;;;;;19.55;47.45;101227.50;5045149;28;20648;-62
2023/04/17 08:20:46;;;;;;;20.57;17.97;;;;;;;19.31;46.65;101231.19;5042388;28;20060;-62
2023/04/17 08:23:14;;;;;;;20.77;18.58;;;;;;;19.21;46.50;101234.50;5040525;28;20057;-63
2023/04/17 08:25:41;;;;;;;19.58;17.55;;;;;;;19.46;45.63;101227.66;5042921;28;21084;-62
2023/04/17 08:28:17;;;;;;;20.27;18.17;;;;;;;19.69;45.48;101232.75;5040928;28;20057;-62
2023/04/17 08:31:02;;;;;;;18.98;16.63;;;;;;;19.72;45.05;101234.06;5041123;28;21997;-61
2023/04/17 08:33:34;;;;;;;18.85;16.92;;;;;;;19.40;45.26;101233.88;5040860;28;20041;-62
2023/04/17 08:36:04;;;;;;;19.48;17.48;;;;;;;19.33;46.03;101233.66;5038144;28;20049;-62
2023/04/17 08:38:34;;;;;;;19.58;17.33;;;;;;;19.30;46.07;101237.19;5040953;28;20052;-62
2023/04/17 08:41:11;;;;;;;18.95;16.73;;;;;;;20.31;44.28;101235.34;5045151;28;20053;-62
2023/04/17 08:43:43;;;;;;;19.73;17.73;;;;;;;20.83;43.36;101234.28;5047401;28;20491;-61
2023/04/17 08:46:11;;;;;;;16.75;14.73;;;;;;;21.15;41.54;101228.63;5039247;28;20049;-61
2023/04/17 08:48:40;;;;;;;17.27;14.75;;;;;;;21.26;40.47;101232.53;5044247;28;20407;-60
2023/04/17 08:51:08;;;;;;;14.98;13.50;;;;;;;21.55;40.63;101233.22;5042990;28;20045;-61
2023/04/17 08:53:41;;;;;;;16.50;14.85;;;;;;;21.87;38.66;101229.03;5036135;28;20605;-61
2023/04/17 08:56:09;;;;;;;15.50;13.23;;;;;;;22.12;38.75;101231.56;5039936;28;20053;-60
2023/04/17 08:58:38;;;;;;;14.77;12.93;;;;;;;22.16;37.61;101229.63;5033213;28;20057;-61
2023/04/17 09:01:15;;;;;;;14.73;13.13;;;;;;;21.92;38.68;101224.25;5033909;28;20493;-61
2023/04/17 09:03:46;;;;;;;14.95;13.35;;;;;;;22.25;37.50;101229.41;5030270;28;20061;-61
2023/04/17 09:06:29;;;;;;;15.07;12.95;;;;;;;22.19;36.96;101234.53;5039662;28;20061;-61
2023/04/17 09:09:08;;;;;;;14.00;12.50;;;;;;;22.27;37.11;101229.84;5041346;28;20512;-61
2023/04/17 09:11:41;;;;;;;14.40;13.00;;;;;;;22.42;36.17;101237.44;5039706;28;20058;-60
2023/04/17 09:14:29;;;;;;;13.32;12.02;;;;;;;22.48;36.50;101232.25;5044068;28;20459;-60
2023/04/17 09:16:59;;;;;;;13.20;11.80;;;;;;;22.85;35.78;101231.72;5037341;28;20052;-60
2023/04/17 09:19:29;;;;;;;13.93;12.52;;;;;;;22.89;35.26;101230.56;5031289;28;20054;-60
2023/04/17 09:21:56;;;;;;;12.80;11.50;;;;;;;23.64;34.76;101238.59;5033550;28;20406;-60
2023/04/17 09:24:33;;;;;;;13.13;11.73;;;;;;;25.91;31.91;101223.19;5039017;28;20511;-60
2023/04/17 09:27:19;;;;;;;12.23;11.02;;;;;;;27.92;29.15;101231.75;5036065;28;20053;-61
2023/04/17 09:29:59;;;;;;;13.30;11.90;;;;;;;27.76;28.79;101225.69;5041093;28;20055;-61
2023/04/17 09:32:30;;;;;;;11.75;10.65;;;;;;;27.09;28.62;101234.00;5041467;28;20049;-61
2023/04/17 09:35:00;;;;;;;11.75;10.55;;;;;;;26.41;28.92;101233.91;5033891;28;20061;-61
2023/04/17 09:37:48;;;;;;;11.23;10.18;;;;;;;27.12;28.01;101230.31;5039376;28;20048;-61
2023/04/17 09:40:16;;;;;;;12.60;9.50;;;;;;;29.09;25.95;101236.31;5039674;28;20044;-61
2023/04/17 09:43:00;;;;;;;11.90;10.40;;;;;;;29.44;25.50;101243.81;5040737;28;20512;-61
2023/04/17 09:45:34;;;;;;;12.43;10.32;;;;;;;29.13;25.74;101243.69;5050529;28;20049;-61
2023/04/17 09:48:02;;;;;;;10.07;8.75;;;;;;;29.01;25.26;101235.56;5045868;28;20053;-61
2023/04/17 09:50:33;;;;;;;11.10;10.00;;;;;;;27.91;26.63;101244.47;5047911;28;20615;-62
2023/04/17 09:53:01;;;;;;;10.85;9.82;;;;;;;27.70;26.43;101245.34;5044730;28;20067;-62
2023/04/17 09:55:30;;;;;;;11.00;9.98;;;;;;;28.04;26.86;101246.88;5044671;28;20053;-62
2023/04/17 09:57:59;;;;;;;11.43;9.55;;;;;;;28.67;27.03;101239.13;5033930;28;20061;-62
2023/04/17 10:00:29;;;;;;;9.95;8.93;;;;;;;30.05;25.21;101237.34;5033869;28;20064;-62
2023/04/17 10:02:58;;;;;;;9.32;7.75;;;;;;;30.04;24.32;101240.66;5038301;28;20053;-62
2023/04/17 10:05:27;;;;;;;8.23;7.43;;;;;;;28.43;25.57;101248.69;5035341;28;20061;-62
2023/04/17 10:07:57;;;;;;;8.77;7.90;;;;;;;28.24;26.31;101245.09;5044097;28;20056;-62
2023/04/17 10:10:26;;;;;;;8.23;7.40;;;;;;;29.27;24.65;101239.03;5051960;28;20072;-62
2023/04/17 10:12:55;;;;;;;;;;;;;;;29.71;24.25;101238.19;5043865;28;20493;-62
2023/04/17 10:15:27;;;;;;;9.77;7.55;;;;;;;29.16;25.44;101241.22;5053414;28;19928;-62
2023/04/17 10:17:56;;;;;;;8.52;7.63;;;;;;;31.08;23.82;101225.53;5045727;28;20053;-62
2023/04/17 10:20:37;;;;;;;8.35;7.38;;;;;;;31.17;22.77;101221.25;5054584;28;20057;-62
2023/04/17 10:23:32;;;;;;;9.43;6.70;;;;;;;31.01;22.11;101219.88;5054875;28;20045;-62
2023/04/17 10:26:44;;;;;;;7.38;6.68;;;;;;;33.74;20.73;101219.38;5054839;28;20060;-62
2023/04/17 10:29:14;;;;;;;7.13;6.53;;;;;;;35.18;19.51;101221.41;5051004;28;20057;-62
2023/04/17 10:32:24;;;;;;;7.72;6.93;;;;;;;34.35;19.78;101212.53;5050088;28;20052;-62
2023/04/17 10:34:53;;;;;;;7.95;7.18;;;;;;;36.00;18.42;101203.06;5034502;28;20053;-63
2023/04/17 10:37:22;;;;;;;7.90;7.05;;;;;;;35.83;18.89;101205.38;5034921;28;20084;-62
2023/04/17 10:39:54;;;;;;;7.65;6.72;;;;;;;35.95;17.43;101207.38;5034486;28;20418;-62
2023/04/17 10:42:22;;;;;;;6.65;6.05;;;;;;;37.23;16.42;101202.50;5034495;28;20402;-62
2023/04/17 10:44:58;;;;;;;7.75;5.85;;;;;;;37.13;15.74;101198.81;5033064;28;20060;-62
2023/04/17 10:47:32;;;;;;;7.28;6.65;;;;;;;37.54;15.61;101193.63;5034248;28;20046;-62
2023/04/17 10:50:02;;;;;;;7.95;6.35;;;;;;;37.76;15.86;101198.47;5033193;28;20060;-63
2023/04/17 10:52:43;;;;;;;8.23;6.65;;;;;;;37.56;15.35;101199.75;5036490;28;20403;-63
2023/04/17 10:55:16;;;;;;;9.48;7.32;;;;;;;37.75;15.48;101191.84;5038816;28;20065;-63
2023/04/17 10:58:03;;;;;;;7.60;6.90;;;;;;;38.23;15.31;101188.34;5036558;28;20052;-63
2023/04/17 11:00:33;;;;;;;12.02;7.13;;;;;;;38.58;15.19;101190.78;5040090;28;20068;-63
2023/04/17 11:03:01;;;;;;;8.20;7.40;;;;;;;36.36;16.86;101193.72;5042487;28;20060;-62
2023/04/17 11:05:30;;;;;;;;;;;;;;;34.59;17.08;101191.97;5033363;28;20050;-62
2023/04/17 11:07:58;;;;;;;7.35;6.65;;;;;;;35.16;16.91;101189.22;5034042;28;19921;-63
2023/04/17 11:10:28;;;;;;;8.88;6.68;;;;;;;36.35;15.93;101179.69;5039346;28;20053;-63
2023/04/17 11:12:57;;;;;;;8.20;7.38;;;;;;;37.43;15.92;101183.81;5054548;28;20068;-62
2023/04/17 11:15:28;;;;;;;6.55;5.95;;;;;;;38.15;15.80;101184.16;5045462;28;20062;-63
2023/04/17 11:17:57;;;;;;;6.90;6.20;;;;;;;38.61;14.77;101180.25;5039119;28;20060;-62
2023/04/17 11:20:31;;;;;;;;;;;;;;;38.81;14.42;101177.53;5038831;28;20057;-63